createdAt,value
2017-06-13T03:32:06.761Z,17.80
2017-06-13T03:34:34.393Z,17.60
2017-06-13T03:37:02.455Z,17.50
2017-06-13T03:39:30.868Z,17.40
2017-06-13T03:41:58.531Z,17.40
2017-06-13T03:44:26.295Z,17.30
2017-06-13T03:46:53.945Z,17.40
2017-06-13T03:49:21.633Z,17.50
2017-06-13T03:51:49.280Z,17.50
2017-06-13T03:54:16.946Z,17.40
2017-06-13T03:56:44.580Z,17.40
2017-06-13T03:59:12.648Z,17.40
2017-06-13T04:01:40.308Z,17.40
2017-06-13T04:04:07.958Z,17.50
2017-06-13T04:06:36.537Z,17.70
2017-06-13T04:09:04.955Z,17.70
2017-06-13T04:11:32.670Z,17.70
2017-06-13T04:14:00.310Z,17.80
2017-06-13T04:16:27.976Z,17.80
2017-06-13T04:18:55.613Z,17.70
2017-06-13T04:21:23.284Z,17.50
2017-06-13T04:23:50.945Z,17.60
2017-06-13T04:26:18.934Z,17.70
2017-06-13T04:28:46.683Z,17.80
2017-06-13T04:31:14.307Z,17.90
2017-06-13T04:33:41.974Z,18.00
2017-06-13T04:36:09.627Z,18.10
2017-06-13T04:38:37.302Z,18.00
2017-06-13T04:41:04.941Z,17.90
2017-06-13T04:43:33.720Z,17.90
2017-06-13T04:46:02.125Z,17.90
2017-06-13T04:48:29.892Z,17.80
2017-06-13T04:50:57.590Z,17.90
2017-06-13T04:53:25.239Z,18.00
2017-06-13T04:55:52.897Z,18.10
2017-06-13T04:58:20.549Z,18.20
2017-06-13T05:00:48.185Z,18.20
2017-06-13T05:03:16.594Z,18.00
2017-06-13T05:05:44.638Z,18.00
2017-06-13T05:08:12.312Z,18.00
2017-06-13T05:10:39.974Z,18.10
2017-06-13T05:13:07.752Z,18.10
2017-06-13T05:15:35.424Z,18.10
2017-06-13T05:18:03.080Z,18.20
2017-06-13T05:20:30.722Z,18.30
2017-06-13T05:22:58.570Z,18.20
2017-06-13T05:25:26.977Z,18.40
2017-06-13T05:27:54.608Z,18.30
2017-06-13T05:30:23.033Z,18.20
2017-06-13T05:32:50.669Z,18.20
2017-06-13T05:35:18.335Z,18.20
2017-06-13T05:37:45.999Z,18.50
2017-06-13T05:40:13.669Z,18.50
2017-06-13T05:42:41.310Z,18.50
2017-06-13T05:45:09.360Z,18.40
2017-06-13T05:47:37.782Z,18.40
2017-06-13T05:50:06.172Z,18.40
2017-06-13T05:52:34.024Z,18.40
2017-06-13T05:55:01.689Z,18.60
2017-06-13T05:57:29.364Z,18.80
2017-06-13T05:59:57.000Z,18.90
2017-06-13T06:02:24.715Z,19.00
2017-06-13T06:04:53.089Z,19.10
2017-06-13T06:07:21.079Z,19.00
2017-06-13T06:09:49.499Z,19.20
2017-06-13T06:12:17.157Z,19.20
2017-06-13T06:14:44.898Z,19.40
2017-06-13T06:17:12.543Z,19.70
2017-06-13T06:19:40.318Z,20.00
2017-06-13T06:22:08.741Z,20.50
2017-06-13T06:24:36.397Z,20.50
2017-06-13T06:27:04.040Z,20.30
2017-06-13T06:29:31.699Z,20.10
2017-06-13T06:31:59.385Z,20.40
2017-06-13T06:34:27.414Z,20.60
2017-06-13T06:36:55.846Z,20.80
2017-06-13T06:39:23.506Z,20.80
2017-06-13T06:41:51.289Z,20.80
2017-06-13T06:44:18.915Z,20.90
2017-06-13T06:46:46.686Z,21.00
2017-06-13T06:49:14.336Z,21.10
2017-06-13T06:51:42.037Z,21.50
2017-06-13T06:54:09.692Z,21.50
2017-06-13T06:56:37.371Z,21.50
2017-06-13T06:59:05.087Z,22.00
2017-06-13T07:01:33.156Z,21.70
2017-06-13T07:04:00.799Z,21.50
2017-06-13T07:06:28.441Z,20.90
2017-06-13T07:08:56.439Z,21.00
2017-06-13T07:11:24.082Z,21.10
2017-06-13T07:13:52.699Z,21.70
2017-06-13T07:16:20.958Z,21.70
2017-06-13T07:18:48.619Z,21.50
2017-06-13T07:21:16.307Z,21.50
2017-06-13T07:23:44.352Z,21.20
2017-06-13T07:26:12.000Z,21.20
2017-06-13T07:28:40.527Z,21.10
2017-06-13T07:31:08.520Z,21.10
2017-06-13T07:33:36.161Z,21.30
2017-06-13T07:36:03.807Z,21.90
2017-06-13T07:38:32.260Z,21.40
2017-06-13T07:40:59.908Z,21.30
2017-06-13T07:43:28.317Z,21.20
2017-06-13T07:45:57.332Z,21.20
2017-06-13T07:48:25.040Z,21.50
2017-06-13T07:50:53.282Z,21.70
2017-06-13T07:53:21.272Z,21.90
2017-06-13T07:55:49.016Z,21.50
2017-06-13T07:58:16.762Z,21.60
2017-06-13T08:00:44.789Z,21.60
2017-06-13T08:03:13.293Z,21.00
2017-06-13T08:05:41.074Z,21.00
2017-06-13T08:08:08.791Z,21.20
2017-06-13T08:10:36.529Z,21.30
2017-06-13T08:13:04.436Z,21.10
2017-06-13T08:15:32.145Z,21.80
2017-06-13T08:17:59.817Z,23.10
2017-06-13T08:20:27.466Z,24.10
2017-06-13T08:22:55.558Z,23.30
2017-06-13T08:25:23.308Z,22.70
2017-06-13T08:27:51.067Z,22.80
2017-06-13T08:30:18.749Z,23.30
2017-06-13T08:32:46.472Z,23.90
2017-06-13T08:35:14.248Z,23.20
2017-06-13T08:37:41.905Z,23.30
2017-06-13T08:40:09.939Z,25.10
2017-06-13T08:42:37.598Z,25.80
2017-06-13T08:45:05.478Z,24.10
2017-06-13T08:47:34.278Z,24.60
2017-06-13T08:50:02.038Z,24.60
2017-06-13T08:52:29.737Z,25.70
2017-06-13T08:54:57.788Z,25.90
2017-06-13T08:57:27.122Z,27.70
2017-06-13T08:59:54.879Z,27.80
2017-06-13T09:02:22.902Z,27.50
2017-06-13T09:04:50.532Z,25.90
2017-06-13T09:07:18.184Z,26.90
2017-06-13T09:09:45.861Z,26.90
2017-06-13T09:12:13.756Z,27.60
2017-06-13T09:14:43.276Z,27.40
2017-06-13T09:17:11.794Z,28.00
2017-06-13T09:19:41.486Z,29.80
2017-06-13T09:22:09.389Z,31.20
2017-06-13T09:24:37.521Z,31.80
2017-06-13T09:27:05.179Z,32.30
2017-06-13T09:29:33.243Z,31.80
2017-06-13T09:32:00.994Z,32.30
2017-06-13T09:37:18.140Z,34.80
2017-06-13T09:39:55.016Z,32.70
2017-06-13T09:42:23.934Z,35.10
2017-06-13T09:44:51.755Z,35.00
2017-06-13T09:47:19.440Z,36.50
2017-06-13T09:49:47.388Z,37.20
2017-06-13T09:52:15.934Z,34.40
2017-06-13T09:54:43.825Z,34.30
2017-06-13T09:57:11.594Z,32.90
2017-06-13T09:59:40.145Z,34.60
2017-06-13T10:02:08.288Z,34.60
2017-06-13T10:04:36.125Z,35.10
2017-06-13T10:07:03.918Z,33.50
2017-06-13T10:09:32.720Z,34.00
2017-06-13T10:12:00.892Z,34.70
2017-06-13T10:14:29.820Z,34.80
2017-06-13T10:16:57.697Z,36.90
2017-06-13T10:19:26.179Z,38.50
2017-06-13T10:21:54.713Z,37.30
2017-06-13T10:24:22.474Z,37.20
2017-06-13T10:26:50.471Z,35.40
2017-06-13T10:29:18.131Z,32.90
2017-06-13T10:31:46.197Z,30.50
2017-06-13T10:34:13.846Z,30.00
2017-06-13T10:36:41.807Z,29.00
2017-06-13T10:39:10.223Z,29.20
2017-06-13T10:41:38.709Z,29.10
2017-06-13T10:44:06.495Z,29.10
2017-06-13T10:46:35.392Z,29.00
2017-06-13T10:49:03.043Z,29.00
2017-06-13T10:51:30.841Z,27.20
2017-06-13T10:53:58.814Z,26.30
2017-06-13T10:56:26.477Z,27.90
2017-06-13T10:58:54.405Z,27.90
2017-06-13T11:01:22.088Z,27.60
2017-06-13T11:03:49.754Z,27.70
2017-06-13T11:06:17.428Z,27.30
2017-06-13T11:08:45.104Z,27.50
2017-06-13T11:11:12.784Z,27.40
2017-06-13T11:13:40.462Z,26.60
2017-06-13T11:16:08.167Z,26.60
2017-06-13T11:18:35.833Z,26.30
2017-06-13T11:21:03.472Z,26.30
2017-06-13T11:23:32.246Z,27.40
2017-06-13T11:25:59.909Z,27.40
2017-06-13T11:28:28.324Z,26.90
2017-06-13T11:30:56.383Z,26.90
2017-06-13T11:33:24.070Z,26.60
2017-06-13T11:35:51.744Z,26.50
2017-06-13T11:38:19.785Z,26.90
2017-06-13T11:40:47.547Z,26.10
2017-06-13T11:43:15.208Z,26.70
2017-06-13T11:45:43.212Z,27.70
2017-06-13T11:48:11.068Z,27.70
2017-06-13T11:50:38.735Z,27.10
2017-06-13T11:53:06.771Z,26.10
2017-06-13T11:55:34.418Z,25.60
2017-06-13T11:58:02.869Z,25.90
2017-06-13T12:00:30.871Z,25.90
2017-06-13T12:02:59.284Z,26.40
2017-06-13T12:05:26.927Z,26.40
2017-06-13T12:07:54.980Z,26.40
2017-06-13T12:10:24.160Z,26.40
2017-06-13T12:12:57.095Z,25.70
2017-06-13T12:15:29.077Z,25.50
2017-06-13T12:17:57.224Z,25.80
2017-06-13T12:20:24.870Z,26.20
2017-06-13T12:22:53.279Z,26.80
2017-06-13T12:25:21.276Z,26.80
2017-06-13T12:27:48.921Z,27.60
2017-06-13T12:30:17.760Z,28.00
2017-06-13T12:32:46.554Z,27.90
2017-06-13T12:35:14.954Z,26.10
2017-06-13T12:37:42.641Z,26.10
2017-06-13T12:40:10.689Z,26.10
2017-06-13T12:42:38.373Z,26.00
2017-06-13T12:45:06.038Z,26.40
2017-06-13T12:47:34.062Z,26.60
2017-06-13T12:50:02.483Z,27.20
2017-06-13T12:52:30.250Z,27.20
2017-06-13T12:54:58.364Z,26.60
2017-06-13T12:57:26.028Z,27.00
2017-06-13T12:59:53.672Z,27.50
2017-06-13T13:02:21.690Z,27.40
2017-06-13T13:04:49.360Z,27.20
2017-06-13T13:07:17.007Z,26.70
2017-06-13T13:09:45.049Z,26.70
2017-06-13T13:12:12.685Z,26.80
2017-06-13T13:14:40.327Z,26.80
2017-06-13T13:17:08.286Z,26.60
2017-06-13T13:19:35.952Z,26.20
2017-06-13T13:22:03.609Z,25.50
2017-06-13T13:24:31.656Z,25.10
2017-06-13T13:27:00.076Z,25.20
2017-06-13T13:29:27.732Z,25.20
2017-06-13T13:31:55.792Z,25.60
2017-06-13T13:34:23.464Z,25.40
2017-06-13T13:36:51.112Z,25.70
2017-06-13T13:39:19.177Z,26.60
2017-06-13T13:41:46.918Z,26.90
2017-06-13T13:44:15.385Z,26.90
2017-06-13T13:46:43.228Z,26.90
2017-06-13T13:49:10.885Z,26.90
2017-06-13T13:51:38.549Z,27.30
2017-06-13T13:54:06.207Z,26.80
2017-06-13T13:56:33.884Z,26.00
2017-06-13T13:59:01.639Z,26.10
2017-06-13T14:01:29.564Z,26.30
2017-06-13T14:03:57.251Z,26.30
2017-06-13T14:06:24.896Z,26.40
2017-06-13T14:08:52.541Z,26.60
2017-06-13T14:11:20.969Z,26.60
2017-06-13T14:13:48.627Z,26.60
2017-06-13T14:16:16.269Z,27.10
2017-06-13T14:18:43.956Z,26.80
2017-06-13T14:21:11.703Z,26.50
2017-06-13T14:23:39.730Z,26.70
2017-06-13T14:26:08.167Z,26.80
2017-06-13T14:28:35.813Z,26.80
2017-06-13T14:31:03.920Z,27.40
2017-06-13T14:33:31.590Z,27.60
2017-06-13T14:35:59.277Z,27.20
2017-06-13T14:38:26.933Z,26.60
2017-06-13T14:40:55.466Z,26.20
2017-06-13T14:43:23.114Z,26.10
2017-06-13T14:45:50.806Z,26.80
2017-06-13T14:48:21.559Z,27.50
2017-06-13T14:50:49.311Z,27.50
2017-06-13T14:53:17.012Z,27.80
2017-06-13T14:55:44.659Z,27.80
2017-06-13T14:58:13.310Z,27.80
2017-06-13T15:00:41.127Z,27.80
2017-06-13T15:03:09.205Z,27.80
2017-06-13T15:05:36.875Z,27.60
2017-06-13T15:08:04.520Z,27.20
2017-06-13T15:10:32.504Z,26.80
2017-06-13T15:13:00.170Z,26.70
2017-06-13T15:15:27.836Z,26.90
2017-06-13T15:17:55.930Z,27.00
2017-06-13T15:20:23.678Z,26.80
2017-06-13T15:22:51.344Z,26.30
2017-06-13T15:25:19.316Z,26.50
2017-06-13T15:27:48.187Z,26.60
2017-06-13T15:30:15.852Z,26.40
2017-06-13T15:32:43.849Z,26.30
2017-06-13T15:35:11.524Z,26.50
2017-06-13T15:37:39.208Z,26.60
2017-06-13T15:40:07.211Z,26.80
2017-06-13T15:42:34.990Z,26.30
2017-06-13T15:45:02.642Z,26.10
2017-06-13T15:47:30.730Z,26.30
2017-06-13T15:49:58.370Z,26.50
2017-06-13T15:52:26.174Z,26.20
2017-06-13T15:54:54.365Z,26.00
2017-06-13T15:57:22.147Z,25.60
2017-06-13T15:59:50.579Z,26.00
2017-06-13T16:02:19.177Z,26.00
2017-06-13T16:04:46.827Z,26.20
2017-06-13T16:07:14.472Z,26.20
2017-06-13T16:09:42.547Z,26.40
2017-06-13T16:12:10.241Z,26.20
2017-06-13T16:14:37.964Z,26.10
2017-06-13T16:17:06.136Z,26.20
2017-06-13T16:19:35.618Z,25.90
2017-06-13T16:22:03.497Z,26.00
2017-06-13T16:24:31.477Z,26.60
2017-06-13T16:26:59.127Z,26.80
2017-06-13T16:29:26.782Z,26.50
2017-06-13T16:31:54.764Z,25.90
2017-06-13T16:34:22.410Z,26.00
2017-06-13T16:36:51.704Z,25.90
2017-06-13T16:39:19.972Z,25.80
2017-06-13T16:41:47.609Z,25.70
2017-06-13T16:44:15.277Z,25.80
2017-06-13T16:46:43.302Z,26.10
2017-06-13T16:49:10.980Z,25.80
2017-06-13T16:51:38.633Z,25.60
2017-06-13T16:54:06.673Z,25.70
2017-06-13T16:56:35.100Z,25.90
2017-06-13T16:59:02.776Z,25.90
2017-06-13T17:01:32.524Z,26.00
2017-06-13T17:04:00.743Z,25.80
2017-06-13T17:06:29.100Z,25.70
2017-06-13T17:08:57.169Z,25.50
2017-06-13T17:11:24.825Z,25.80
2017-06-13T17:13:52.465Z,26.10
2017-06-13T17:16:21.367Z,25.90
2017-06-13T17:18:49.023Z,25.90
2017-06-13T17:21:17.443Z,25.60
2017-06-13T17:23:45.908Z,25.60
2017-06-13T17:26:13.558Z,25.70
2017-06-13T17:28:42.518Z,25.90
2017-06-13T17:31:11.330Z,25.30
2017-06-13T17:33:38.974Z,25.30
2017-06-13T17:36:08.702Z,25.30
2017-06-13T17:38:36.930Z,25.30
2017-06-13T17:41:04.713Z,25.10
2017-06-13T17:43:33.973Z,25.20
2017-06-13T17:46:02.537Z,25.20
2017-06-13T17:48:30.207Z,25.30
2017-06-13T17:50:57.882Z,25.50
2017-06-13T17:53:25.864Z,25.30
2017-06-13T17:55:53.520Z,25.60
2017-06-13T17:58:21.175Z,25.90
2017-06-13T18:00:49.219Z,26.10
2017-06-13T18:03:16.886Z,26.00
2017-06-13T18:05:44.535Z,26.00
2017-06-13T18:08:13.315Z,25.90
2017-06-13T18:10:41.787Z,25.80
2017-06-13T18:13:11.007Z,25.70
2017-06-13T18:15:38.699Z,25.70
2017-06-13T18:18:06.358Z,25.70
2017-06-13T18:20:36.218Z,25.70
2017-06-13T18:23:03.922Z,25.90
2017-06-13T18:25:31.984Z,25.80
2017-06-13T18:27:59.657Z,25.60
2017-06-13T18:30:27.324Z,25.40
2017-06-13T18:32:54.997Z,25.40
2017-06-13T18:35:22.688Z,25.30
2017-06-13T18:37:50.372Z,25.30
2017-06-13T18:40:18.785Z,25.00
2017-06-13T18:42:46.947Z,25.00
2017-06-13T18:45:14.608Z,25.00
2017-06-13T18:47:42.262Z,24.90
2017-06-13T18:50:09.933Z,24.90
2017-06-13T18:52:37.615Z,24.80
2017-06-13T18:55:05.266Z,24.90
2017-06-13T18:57:32.914Z,24.80
2017-06-13T19:00:00.597Z,24.80
2017-06-13T19:02:28.257Z,24.60
2017-06-13T19:04:56.317Z,24.50
2017-06-13T19:07:23.970Z,24.50
2017-06-13T19:09:51.627Z,24.50
2017-06-13T19:12:20.071Z,24.30
2017-06-13T19:14:47.871Z,24.30
2017-06-13T19:17:16.312Z,24.20
2017-06-13T19:19:43.976Z,24.20
2017-06-13T19:22:11.672Z,24.10
2017-06-13T19:24:40.120Z,24.00
2017-06-13T19:27:07.835Z,24.00
2017-06-13T19:29:35.626Z,24.00
2017-06-13T19:32:03.294Z,23.90
2017-06-13T19:34:30.991Z,23.80
2017-06-13T19:36:59.432Z,23.70
2017-06-13T19:39:27.105Z,23.70
2017-06-13T19:41:54.754Z,23.60
2017-06-13T19:44:22.801Z,23.60
2017-06-13T19:59:50.548Z,23.60
2017-06-13T20:02:18.237Z,22.90
2017-06-13T20:04:46.001Z,23.10
2017-06-13T20:07:13.705Z,23.10
2017-06-13T20:09:41.378Z,23.10
2017-06-13T20:12:09.871Z,23.10
2017-06-13T20:14:37.589Z,23.10
2017-06-13T20:17:05.504Z,23.10
2017-06-13T20:19:33.797Z,23.00
2017-06-13T20:22:01.535Z,22.90
2017-06-13T20:24:30.957Z,22.90
2017-06-13T20:26:58.643Z,22.80
2017-06-13T20:29:26.324Z,22.80
2017-06-13T20:31:54.244Z,22.70
2017-06-13T20:34:27.636Z,22.70
2017-06-13T20:36:55.429Z,22.60
2017-06-13T20:39:23.142Z,22.60
2017-06-13T20:41:51.691Z,22.40
2017-06-13T20:44:19.361Z,22.40
2017-06-13T20:46:47.109Z,22.40
2017-06-13T20:49:14.774Z,22.40
2017-06-13T20:51:42.524Z,22.30
2017-06-13T20:54:10.325Z,22.20
2017-06-13T20:56:41.855Z,22.20
2017-06-13T20:59:09.828Z,22.10
2017-06-13T21:01:37.713Z,22.00
2017-06-13T21:04:05.590Z,22.00
2017-06-13T21:06:34.344Z,21.90
2017-06-13T21:09:02.300Z,21.90
2017-06-13T21:11:30.633Z,21.90
2017-06-13T21:13:58.368Z,21.90
2017-06-13T21:16:26.018Z,21.90
2017-06-13T21:18:53.699Z,21.90
2017-06-13T21:21:21.349Z,21.80
2017-06-13T21:23:49.022Z,21.80
2017-06-13T21:26:16.675Z,21.80
2017-06-13T21:28:44.374Z,21.70
